Time;durP1;ratioP1;P1;durP2;ratioP2;P2;SDS_P1;SDS_P2;PMS_P1;PMS_P2;Temp;Humidity;BMP_temperature;BMP_pressure;BME280_temperature;BME280_humidity;BME280_pressure;Samples;Min_cycle;Max_cycle;Signal;HPM_P1;HPM_P2
2023/05/08 00:00:41;;;;;;;12.70;6.80;;;7.10;76.50;;;;;;4774715;30;20440;-87
2023/05/08 00:03:08;;;;;;;12.75;5.97;;;7.10;76.60;;;;;;4786432;29;20052;-86
2023/05/08 00:05:35;;;;;;;9.45;5.43;;;7.20;76.50;;;;;;4774825;30;20059;-86
2023/05/08 00:08:02;;;;;;;11.63;6.05;;;7.20;75.80;;;;;;4774455;30;20126;-87
2023/05/08 00:10:29;;;;;;;12.80;6.57;;;7.20;75.80;;;;;;4791998;29;20051;-86
2023/05/08 00:12:57;;;;;;;10.63;5.50;;;7.20;75.90;;;;;;4774624;30;20411;-87
2023/05/08 00:15:24;;;;;;;11.00;6.00;;;7.30;75.70;;;;;;4804058;29;20057;-87
2023/05/08 00:17:51;;;;;;;12.32;6.20;;;7.30;75.50;;;;;;4774318;30;20043;-87
2023/05/08 00:20:18;;;;;;;10.30;5.28;;;7.30;75.40;;;;;;4788253;29;20054;-86
2023/05/08 00:22:45;;;;;;;11.32;5.80;;;7.30;75.30;;;;;;4771307;30;20043;-86
2023/05/08 00:25:12;;;;;;;13.07;6.00;;;7.30;75.50;;;;;;4773001;30;20444;-85
2023/05/08 00:27:39;;;;;;;11.10;5.40;;;7.30;75.50;;;;;;4772207;30;20055;-86
2023/05/08 00:30:07;;;;;;;11.45;5.60;;;7.30;75.30;;;;;;4773910;30;20147;-86
2023/05/08 00:32:34;;;;;;;11.77;5.57;;;7.40;75.50;;;;;;4773908;30;20052;-86
2023/05/08 00:35:01;;;;;;;12.43;5.85;;;7.30;75.20;;;;;;4789090;29;20134;-86
2023/05/08 00:37:28;;;;;;;10.23;5.17;;;7.30;75.60;;;;;;4785751;30;20054;-86
2023/05/08 00:39:55;;;;;;;11.43;5.65;;;7.20;75.70;;;;;;4803004;29;20134;-86
2023/05/08 00:42:22;;;;;;;12.13;6.30;;;7.10;76.10;;;;;;4773924;30;20109;-85
2023/05/08 00:44:49;;;;;;;12.90;6.00;;;7.10;76.40;;;;;;4787351;29;20078;-86
2023/05/08 00:47:16;;;;;;;12.68;5.50;;;7.00;76.70;;;;;;4788888;30;20058;-86
2023/05/08 00:49:43;;;;;;;11.80;6.10;;;7.00;77.00;;;;;;4773756;30;20069;-86
2023/05/08 00:52:11;;;;;;;14.05;6.15;;;6.90;77.10;;;;;;4803362;29;20054;-86
2023/05/08 00:54:38;;;;;;;11.52;6.53;;;6.90;77.00;;;;;;4773522;30;20065;-86
2023/05/08 00:57:09;;;;;;;11.40;5.72;;;7.00;77.50;;;;;;4773502;30;20051;-86
2023/05/08 00:59:37;;;;;;;12.43;6.07;;;7.00;76.90;;;;;;4773899;30;20057;-86
2023/05/08 01:02:04;;;;;;;11.77;6.00;;;7.00;77.20;;;;;;4788236;29;20051;-86
2023/05/08 01:04:33;;;;;;;11.55;5.78;;;7.00;77.10;;;;;;4773481;30;20055;-86
2023/05/08 01:07:01;;;;;;;12.07;6.75;;;6.90;77.20;;;;;;4773294;30;20130;-86
2023/05/08 01:09:28;;;;;;;12.35;6.20;;;6.90;77.10;;;;;;4773436;30;20052;-86
2023/05/08 01:12:03;;;;;;;12.25;5.88;;;6.90;77.10;;;;;;4772922;29;20060;-87
2023/05/08 01:14:54;;;;;;;11.13;5.67;;;6.80;77.10;;;;;;4788166;29;20114;-86
2023/05/08 01:17:35;;;;;;;11.57;6.35;;;6.80;77.30;;;;;;4787833;29;20054;-86
2023/05/08 01:20:33;;;;;;;13.32;6.00;;;6.90;77.30;;;;;;4769294;30;20062;-86
2023/05/08 01:23:21;;;;;;;11.15;5.88;;;6.90;77.00;;;;;;4760541;29;20510;-86
2023/05/08 01:26:32;;;;;;;11.18;5.57;;;6.90;76.70;;;;;;4784716;30;20051;-86
2023/05/08 01:29:25;;;;;;;10.60;5.80;;;6.90;76.60;;;;;;4782234;29;20087;-86
2023/05/08 01:32:14;;;;;;;11.35;5.47;;;6.90;76.60;;;;;;4802559;29;20055;-86
2023/05/08 01:35:06;;;;;;;12.05;6.25;;;6.90;76.70;;;;;;4786098;30;20054;-86
2023/05/08 01:37:39;;;;;;;11.95;5.85;;;6.90;76.70;;;;;;4773089;30;20050;-86
2023/05/08 01:40:36;;;;;;;10.88;5.40;;;6.90;76.70;;;;;;4784986;30;20062;-86
2023/05/08 01:43:18;;;;;;;10.50;5.27;;;7.00;76.50;;;;;;4800686;29;20054;-87
2023/05/08 01:45:48;;;;;;;9.43;5.15;;;7.00;76.30;;;;;;4772827;30;20059;-87
2023/05/08 01:48:25;;;;;;;10.93;5.13;;;7.10;76.00;;;;;;4773117;30;20051;-86
2023/05/08 01:51:04;;;;;;;9.80;5.20;;;7.00;76.00;;;;;;4787832;29;20058;-86
2023/05/08 01:53:46;;;;;;;11.43;5.63;;;7.00;76.10;;;;;;4772760;30;20450;-87
2023/05/08 01:56:21;;;;;;;12.43;5.67;;;7.00;75.90;;;;;;4773092;30;20492;-86
2023/05/08 01:58:51;;;;;;;10.65;5.50;;;7.00;76.30;;;;;;4784604;29;20059;-86
2023/05/08 02:05:03;;;;;;;9.80;5.32;;;7.10;76.00;;;;;;4747880;29;20066;-88
2023/05/08 02:07:34;;;;;;;10.15;4.80;;;7.00;75.90;;;;;;4769895;30;20048;-88
2023/05/08 02:10:03;;;;;;;9.80;4.97;;;7.10;75.70;;;;;;4769133;30;20047;-88
2023/05/08 02:12:31;;;;;;;8.68;4.50;;;7.10;75.30;;;;;;4769503;30;20089;-88
2023/05/08 02:15:00;;;;;;;9.55;4.85;;;7.00;75.50;;;;;;4769061;30;20135;-88
2023/05/08 02:17:29;;;;;;;10.13;5.53;;;7.00;75.70;;;;;;4769086;30;20047;-88
2023/05/08 02:19:57;;;;;;;10.02;5.10;;;7.00;75.40;;;;;;4767717;30;20052;-88
2023/05/08 02:22:26;;;;;;;9.60;4.87;;;7.00;75.60;;;;;;4768951;30;20043;-88
2023/05/08 02:24:55;;;;;;;8.93;4.82;;;7.00;75.70;;;;;;4769027;30;20047;-88
2023/05/08 02:27:27;;;;;;;11.52;5.47;;;7.00;75.50;;;;;;4769292;30;20063;-88
2023/05/08 02:29:56;;;;;;;8.00;4.43;;;6.90;76.10;;;;;;4769527;30;20036;-88
2023/05/08 02:32:25;;;;;;;10.45;4.57;;;7.00;76.30;;;;;;4768981;30;20142;-88
2023/05/08 02:34:54;;;;;;;9.97;4.70;;;7.00;75.50;;;;;;4769030;30;20116;-88
2023/05/08 02:37:30;;;;;;;8.45;4.60;;;7.00;75.50;;;;;;4768498;30;20079;-88
2023/05/08 02:39:58;;;;;;;11.02;4.43;;;7.10;75.60;;;;;;4769286;30;20048;-88
2023/05/08 02:42:25;;;;;;;9.23;4.70;;;7.10;75.80;;;;;;4754351;30;20051;-88
2023/05/08 02:44:52;;;;;;;7.97;3.92;;;7.20;75.30;;;;;;4772467;30;20131;-88
2023/05/08 02:47:54;;;;;;;8.40;4.10;;;7.10;74.40;;;;;;4772340;30;20112;-88
2023/05/08 02:50:56;;;;;;;8.48;4.07;;;7.20;75.10;;;;;;4768277;30;20050;-88
2023/05/08 02:53:31;;;;;;;7.18;3.15;;;7.20;74.40;;;;;;4731929;30;20056;-87
2023/05/08 02:56:08;;;;;;;6.60;2.72;;;7.20;74.00;;;;;;4772733;30;20502;-88
2023/05/08 02:58:58;;;;;;;5.55;2.33;;;7.10;72.70;;;;;;4770428;30;20071;-88
2023/05/08 03:01:36;;;;;;;5.47;2.07;;;7.10;71.90;;;;;;4770269;30;20039;-88
2023/05/08 03:04:08;;;;;;;5.82;2.13;;;7.00;72.00;;;;;;4776327;29;20055;-88
2023/05/08 03:06:39;;;;;;;6.00;2.22;;;7.10;71.80;;;;;;4787346;29;20040;-88
2023/05/08 03:09:11;;;;;;;6.03;2.30;;;7.00;71.90;;;;;;4787409;30;20495;-87
2023/05/08 03:11:41;;;;;;;6.85;2.30;;;7.10;72.00;;;;;;4787189;30;20063;-88
2023/05/08 03:14:11;;;;;;;5.27;2.10;;;7.20;71.70;;;;;;4787222;30;20416;-89
2023/05/08 03:16:41;;;;;;;6.78;2.53;;;7.30;71.40;;;;;;4787136;30;20058;-88
2023/05/08 03:19:26;;;;;;;6.82;2.85;;;7.30;71.60;;;;;;4786940;30;20056;-88
2023/05/08 03:21:55;;;;;;;7.03;2.95;;;7.30;71.80;;;;;;4772546;30;20079;-88
2023/05/08 03:24:24;;;;;;;6.43;2.85;;;7.30;72.10;;;;;;4788445;29;20402;-88
2023/05/08 03:26:51;;;;;;;7.13;2.90;;;7.30;72.30;;;;;;4772238;30;20054;-88
2023/05/08 03:29:20;;;;;;;6.40;2.97;;;7.30;72.30;;;;;;4786714;30;20531;-88
2023/05/08 03:31:50;;;;;;;7.00;2.90;;;7.20;71.80;;;;;;4787117;30;20482;-88
2023/05/08 03:34:20;;;;;;;6.32;2.65;;;7.20;72.20;;;;;;4786794;30;20066;-88
2023/05/08 03:36:47;;;;;;;8.88;3.28;;;7.10;72.50;;;;;;4775313;30;20462;-88
2023/05/08 03:39:14;;;;;;;7.27;3.57;;;7.10;73.20;;;;;;4786801;30;20498;-90
2023/05/08 03:41:42;;;;;;;8.60;3.70;;;7.00;74.10;;;;;;4787067;30;20043;-88
2023/05/08 03:44:10;;;;;;;8.45;4.00;;;7.00;74.70;;;;;;4786409;29;20111;-89
2023/05/08 03:46:38;;;;;;;10.10;4.80;;;7.00;74.90;;;;;;4775541;29;20137;-88
2023/05/08 03:49:08;;;;;;;9.00;4.57;;;7.00;75.20;;;;;;4786329;29;20063;-88
2023/05/08 03:51:39;;;;;;;9.67;4.83;;;7.00;75.30;;;;;;4786240;29;20056;-89
2023/05/08 03:54:06;;;;;;;10.15;5.40;;;7.10;75.60;;;;;;4785659;29;20044;-88
2023/05/08 03:56:33;;;;;;;9.98;5.28;;;7.00;75.40;;;;;;4785667;29;20047;-88
2023/05/08 03:59:10;;;;;;;11.40;5.78;;;7.00;75.70;;;;;;4786100;29;20056;-88
2023/05/08 04:01:41;;;;;;;10.60;5.03;;;6.80;76.60;;;;;;4786328;30;20047;-88
2023/05/08 04:04:25;;;;;;;10.97;5.03;;;6.70;77.30;;;;;;4785720;29;20083;-88
2023/05/08 04:07:13;;;;;;;12.40;4.80;;;6.70;77.30;;;;;;4786753;30;20039;-88
2023/05/08 04:10:12;;;;;;;12.05;5.78;;;6.70;77.20;;;;;;4786449;29;20502;-88
2023/05/08 04:13:06;;;;;;;11.00;5.15;;;6.70;77.10;;;;;;4777757;29;20052;-88
2023/05/08 04:15:57;;;;;;;11.07;6.00;;;6.70;77.40;;;;;;4773270;29;20130;-89
2023/05/08 04:18:36;;;;;;;12.70;5.40;;;6.60;77.70;;;;;;4784493;30;20075;-89
2023/05/08 04:21:08;;;;;;;10.23;4.97;;;6.70;77.60;;;;;;4785173;29;20048;-89
2023/05/08 04:23:39;;;;;;;9.60;5.13;;;6.70;77.20;;;;;;4784896;29;20048;-89
2023/05/08 04:26:07;;;;;;;11.40;5.35;;;6.60;77.10;;;;;;4786077;30;20078;-90
2023/05/08 04:28:34;;;;;;;11.85;6.10;;;6.50;77.70;;;;;;4783666;29;20143;-89
2023/05/08 04:31:03;;;;;;;10.97;5.63;;;6.70;77.40;;;;;;4786295;30;20055;-90
2023/05/08 04:33:33;;;;;;;9.90;5.18;;;6.70;77.20;;;;;;4786033;29;20059;-89
2023/05/08 04:36:03;;;;;;;11.32;4.97;;;6.70;77.10;;;;;;4785430;29;20056;-90
2023/05/08 04:38:35;;;;;;;9.77;5.28;;;6.70;76.50;;;;;;4785556;29;20063;-90
2023/05/08 04:41:03;;;;;;;12.50;5.50;;;6.70;76.80;;;;;;4785920;29;20079;-89
2023/05/08 04:43:30;;;;;;;9.60;5.23;;;6.90;76.70;;;;;;4772971;30;20435;-89
2023/05/08 04:45:57;;;;;;;10.30;5.60;;;6.80;76.40;;;;;;4786092;30;20043;-89
2023/05/08 04:48:24;;;;;;;10.57;4.95;;;6.90;76.40;;;;;;4785829;29;20453;-90
2023/05/08 04:50:51;;;;;;;9.95;4.43;;;6.90;76.10;;;;;;4781443;29;20533;-89
2023/05/08 04:53:19;;;;;;;12.13;5.03;;;6.80;75.40;;;;;;4785186;30;20057;-87
2023/05/08 04:55:48;;;;;;;8.17;4.17;;;6.80;75.90;;;;;;4785477;30;20059;-86
2023/05/08 04:58:15;;;;;;;11.82;5.40;;;6.70;75.80;;;;;;4785154;30;20100;-86
2023/05/08 05:00:42;;;;;;;8.93;4.65;;;6.80;75.90;;;;;;4785164;30;20043;-86
2023/05/08 05:03:09;;;;;;;9.82;5.10;;;6.80;75.90;;;;;;4784776;30;20093;-87
2023/05/08 05:05:37;;;;;;;10.90;5.05;;;6.70;75.90;;;;;;4770372;30;20063;-86
2023/05/08 05:08:05;;;;;;;12.37;4.30;;;6.80;75.90;;;;;;4771547;30;20068;-88
2023/05/08 05:10:32;;;;;;;9.77;4.30;;;6.80;75.70;;;;;;4770317;30;20503;-89
2023/05/08 05:12:59;;;;;;;9.27;4.57;;;6.90;75.50;;;;;;4765896;30;20101;-88
2023/05/08 05:15:27;;;;;;;10.65;4.57;;;6.90;75.30;;;;;;4770539;30;20071;-88
2023/05/08 05:17:54;;;;;;;9.05;4.72;;;7.00;75.20;;;;;;4770443;30;20058;-89
2023/05/08 05:20:21;;;;;;;8.93;4.80;;;7.00;75.00;;;;;;4770553;30;20522;-88
2023/05/08 05:22:48;;;;;;;9.98;4.22;;;7.10;74.90;;;;;;4770097;30;20071;-88
2023/05/08 05:25:15;;;;;;;9.32;4.20;;;7.10;74.40;;;;;;4770411;30;20130;-88
2023/05/08 05:27:43;;;;;;;9.15;4.60;;;7.00;74.90;;;;;;4770048;30;20097;-88
2023/05/08 05:30:11;;;;;;;10.05;4.70;;;7.00;74.70;;;;;;4770623;30;20109;-89
2023/05/08 05:32:38;;;;;;;9.47;4.40;;;6.90;74.20;;;;;;4770466;30;20113;-88
2023/05/08 05:35:06;;;;;;;10.00;4.80;;;7.00;74.60;;;;;;4770200;30;20051;-88
2023/05/08 05:37:34;;;;;;;9.98;4.70;;;7.00;75.10;;;;;;4770058;30;20055;-87
2023/05/08 05:40:02;;;;;;;8.90;4.20;;;7.10;74.30;;;;;;4769784;30;20054;-87
2023/05/08 05:42:31;;;;;;;9.32;4.43;;;7.10;74.10;;;;;;4769631;30;20079;-88
2023/05/08 05:44:58;;;;;;;9.83;4.40;;;7.10;74.10;;;;;;4769883;30;20055;-87
2023/05/08 05:47:25;;;;;;;10.70;4.68;;;7.00;73.90;;;;;;4770047;30;20121;-89
2023/05/08 05:49:52;;;;;;;9.30;4.10;;;7.10;74.20;;;;;;4770170;30;20062;-88
2023/05/08 05:52:20;;;;;;;9.73;4.65;;;7.40;73.50;;;;;;4758568;30;20082;-88
2023/05/08 05:55:51;;;;;;;9.32;4.18;;;7.50;73.40;;;;;;4769917;30;20108;-87
2023/05/08 05:58:34;;;;;;;11.00;3.50;;;7.70;72.50;;;;;;4769844;30;20418;-87
2023/05/08 06:01:01;;;;;;;8.13;3.35;;;7.70;72.60;;;;;;4769617;30;20142;-87
2023/05/08 06:03:29;;;;;;;6.32;3.03;;;7.90;71.30;;;;;;4769939;30;20087;-87
2023/05/08 06:05:56;;;;;;;7.60;3.45;;;8.00;70.50;;;;;;4769759;30;20056;-87
2023/05/08 06:08:25;;;;;;;9.23;3.28;;;7.90;70.80;;;;;;4770049;30;20521;-87
2023/05/08 06:10:55;;;;;;;7.20;2.83;;;7.90;70.90;;;;;;4769841;30;20051;-87
2023/05/08 06:13:22;;;;;;;6.63;2.97;;;8.00;70.20;;;;;;4769447;30;20086;-87
2023/05/08 06:15:50;;;;;;;7.15;3.13;;;7.90;70.60;;;;;;4769597;30;20131;-89
2023/05/08 06:18:17;;;;;;;8.40;3.67;;;7.80;70.80;;;;;;4762804;30;20495;-88
2023/05/08 06:20:44;;;;;;;6.60;2.90;;;7.90;70.60;;;;;;4758898;30;20055;-88
2023/05/08 06:23:12;;;;;;;7.57;3.10;;;8.10;70.30;;;;;;4773998;30;20052;-87
2023/05/08 06:25:39;;;;;;;6.25;3.10;;;8.50;70.40;;;;;;4772801;30;20134;-87
2023/05/08 06:28:07;;;;;;;7.15;3.25;;;8.50;68.60;;;;;;4773043;30;20120;-87
2023/05/08 06:30:34;;;;;;;8.02;3.30;;;8.50;68.30;;;;;;4772868;30;20062;-87
2023/05/08 06:33:01;;;;;;;7.30;3.20;;;8.60;68.30;;;;;;4773936;30;20071;-88
2023/05/08 06:35:28;;;;;;;6.90;3.17;;;8.70;68.00;;;;;;4773013;30;20059;-87
2023/05/08 06:37:55;;;;;;;5.80;2.75;;;8.80;67.60;;;;;;4772708;30;20056;-87
2023/05/08 06:40:22;;;;;;;7.22;2.85;;;8.90;67.60;;;;;;4787781;29;20089;-87
2023/05/08 06:42:49;;;;;;;8.18;2.90;;;9.00;66.60;;;;;;4787878;29;20128;-86
2023/05/08 06:45:16;;;;;;;11.10;4.55;;;9.00;67.00;;;;;;4787390;29;20048;-87
2023/05/08 06:47:43;;;;;;;8.03;3.53;;;8.90;68.50;;;;;;4787258;29;20082;-86
2023/05/08 06:50:10;;;;;;;8.13;3.40;;;8.80;67.00;;;;;;4787142;29;20067;-87
2023/05/08 06:52:38;;;;;;;8.43;4.40;;;8.60;68.70;;;;;;4778213;30;20047;-88
2023/05/08 06:55:05;;;;;;;7.78;3.95;;;8.70;69.70;;;;;;4757990;30;20143;-88
2023/05/08 06:57:32;;;;;;;9.10;4.18;;;8.80;69.80;;;;;;4772746;30;20119;-87
2023/05/08 06:59:59;;;;;;;9.40;3.60;;;8.90;69.10;;;;;;4772563;30;20134;-87
2023/05/08 07:02:26;;;;;;;9.30;4.53;;;8.70;68.70;;;;;;4772145;30;20423;-86
2023/05/08 07:04:53;;;;;;;9.60;4.63;;;8.70;68.90;;;;;;4790160;29;20059;-86
2023/05/08 07:07:20;;;;;;;8.77;4.80;;;8.60;69.50;;;;;;4779332;29;20092;-86
2023/05/08 07:09:47;;;;;;;9.30;4.70;;;8.60;69.50;;;;;;4789743;30;20422;-89
2023/05/08 07:12:15;;;;;;;10.73;5.30;;;8.60;69.30;;;;;;4790857;30;20100;-94
2023/05/08 07:14:43;;;;;;;11.18;4.85;;;8.70;68.90;;;;;;4791026;30;20055;-93
2023/05/08 07:17:10;;;;;;;9.40;4.40;;;8.90;70.00;;;;;;4790785;30;20138;-93
2023/05/08 07:19:37;;;;;;;8.13;4.15;;;9.00;69.00;;;;;;4790885;30;20051;-93
2023/05/08 07:22:07;;;;;;;7.88;3.72;;;9.00;68.40;;;;;;4791946;30;20058;-96
2023/05/08 07:24:35;;;;;;;8.10;4.27;;;9.00;67.60;;;;;;4794374;30;20048;-94
2023/05/08 07:27:02;;;;;;;9.43;4.03;;;8.90;66.90;;;;;;4790775;30;20148;-94
2023/05/08 07:29:30;;;;;;;8.18;3.92;;;8.90;67.90;;;;;;4790712;29;20051;-94
2023/05/08 07:31:57;;;;;;;13.23;4.93;;;8.90;67.00;;;;;;4790798;30;20097;-94
2023/05/08 07:34:24;;;;;;;7.55;3.92;;;8.90;67.90;;;;;;4790350;30;20060;-86
2023/05/08 07:36:51;;;;;;;12.20;5.17;;;9.00;67.90;;;;;;4789636;30;20515;-87
2023/05/08 07:39:18;;;;;;;10.63;4.90;;;9.10;70.30;;;;;;4789618;30;20047;-86
2023/05/08 07:41:45;;;;;;;7.85;4.00;;;9.30;68.90;;;;;;4789266;30;20057;-86
2023/05/08 07:44:15;;;;;;;10.15;4.32;;;9.30;67.60;;;;;;4789336;30;20047;-87
2023/05/08 07:46:42;;;;;;;11.40;5.22;;;9.10;67.00;;;;;;4789015;30;20044;-86
2023/05/08 07:49:10;;;;;;;9.10;4.10;;;8.90;68.60;;;;;;4789136;30;20141;-87
2023/05/08 07:51:39;;;;;;;7.90;4.20;;;9.00;68.00;;;;;;4789229;30;20145;-87
2023/05/08 07:54:06;;;;;;;9.57;4.68;;;9.10;67.30;;;;;;4789161;30;20134;-86
2023/05/08 07:56:33;;;;;;;9.00;4.32;;;9.20;67.20;;;;;;4789178;30;20055;-86
2023/05/08 07:59:00;;;;;;;9.10;4.38;;;9.40;68.00;;;;;;4789067;30;20082;-86
2023/05/08 08:01:26;;;;;;;8.97;4.40;;;9.40;66.30;;;;;;4789001;30;20514;-86
2023/05/08 08:03:53;;;;;;;9.55;4.40;;;9.40;66.50;;;;;;4786056;29;20059;-86
2023/05/08 08:06:21;;;;;;;7.95;4.03;;;9.50;67.90;;;;;;4786017;30;20503;-86
2023/05/08 08:08:48;;;;;;;11.98;4.15;;;9.60;66.50;;;;;;4786160;30;20052;-86
2023/05/08 08:11:15;;;;;;;9.00;4.53;;;9.60;66.90;;;;;;4786089;30;20048;-86
2023/05/08 08:13:42;;;;;;;8.60;3.93;;;9.80;68.00;;;;;;4785969;30;20142;-86
2023/05/08 08:16:09;;;;;;;8.88;4.45;;;9.90;65.80;;;;;;4785848;30;20048;-86
2023/05/08 08:18:36;;;;;;;11.15;4.32;;;9.90;65.70;;;;;;4786062;30;20059;-86
2023/05/08 08:21:06;;;;;;;7.93;3.65;;;10.00;66.40;;;;;;4785794;30;20055;-87
2023/05/08 08:23:33;;;;;;;9.68;4.20;;;10.00;65.90;;;;;;4785670;30;20047;-86
2023/05/08 08:26:00;;;;;;;8.67;4.03;;;10.00;66.20;;;;;;4785813;30;20079;-86
2023/05/08 08:28:28;;;;;;;8.40;3.80;;;10.00;64.60;;;;;;4785572;30;20051;-86
2023/05/08 08:30:55;;;;;;;15.07;4.57;;;10.00;66.00;;;;;;4785691;30;20471;-87
2023/05/08 08:33:22;;;;;;;7.68;3.88;;;10.20;65.10;;;;;;4785520;30;20109;-86
2023/05/08 08:35:49;;;;;;;9.57;4.20;;;10.40;63.80;;;;;;4785671;30;20113;-86
2023/05/08 08:38:16;;;;;;;8.83;4.03;;;10.40;65.10;;;;;;4785593;30;20507;-87
2023/05/08 08:40:43;;;;;;;9.25;4.20;;;10.50;64.50;;;;;;4784541;29;20582;-87
2023/05/08 08:43:10;;;;;;;6.88;2.83;;;10.50;63.50;;;;;;4785861;30;20537;-87
2023/05/08 08:45:37;;;;;;;7.00;2.90;;;10.50;62.80;;;;;;4785512;30;20138;-87
2023/05/08 08:48:11;;;;;;;7.97;4.03;;;10.30;61.40;;;;;;4785360;30;20056;-86
2023/05/08 08:50:42;;;;;;;5.90;2.93;;;10.30;63.00;;;;;;4785424;30;20083;-87
2023/05/08 08:53:24;;;;;;;6.95;3.10;;;10.30;63.50;;;;;;4785459;30;20063;-86
2023/05/08 08:55:55;;;;;;;7.15;3.38;;;10.20;62.50;;;;;;4785220;30;20126;-87
2023/05/08 08:58:35;;;;;;;7.20;3.25;;;10.30;61.50;;;;;;4785365;30;20064;-87
2023/05/08 09:01:13;;;;;;;8.20;3.38;;;10.50;62.50;;;;;;4785254;30;20052;-86
2023/05/08 09:03:40;;;;;;;7.60;3.10;;;10.60;61.80;;;;;;4784956;29;20059;-86
2023/05/08 09:06:08;;;;;;;6.78;2.85;;;10.60;62.10;;;;;;4784867;30;20143;-86
2023/05/08 09:08:36;;;;;;;6.35;2.70;;;10.60;60.30;;;;;;4785111;30;20044;-87
2023/05/08 09:11:03;;;;;;;12.65;3.00;;;10.50;61.90;;;;;;4784874;30;20075;-86
2023/05/08 09:13:30;;;;;;;9.45;3.75;;;10.60;61.50;;;;;;4784967;30;20052;-87
2023/05/08 09:15:58;;;;;;;6.53;2.90;;;10.60;63.50;;;;;;4771137;30;20048;-87
2023/05/08 09:18:26;;;;;;;8.18;3.08;;;10.70;62.90;;;;;;4784993;30;20051;-86
2023/05/08 09:20:53;;;;;;;6.95;2.92;;;10.60;62.30;;;;;;4784850;30;20121;-86
2023/05/08 09:23:20;;;;;;;7.32;3.35;;;10.80;61.80;;;;;;4784715;30;20051;-86
2023/05/08 09:25:49;;;;;;;6.45;3.20;;;10.60;61.60;;;;;;4785013;30;20135;-86
2023/05/08 09:28:17;;;;;;;6.40;2.77;;;10.80;61.70;;;;;;4784761;30;20526;-87
2023/05/08 09:30:53;;;;;;;6.03;2.80;;;11.00;60.60;;;;;;4784935;30;20082;-86
2023/05/08 09:33:22;;;;;;;6.72;2.83;;;11.10;62.10;;;;;;4784758;30;20566;-86
2023/05/08 09:35:56;;;;;;;5.90;2.30;;;10.90;60.50;;;;;;4784535;30;20055;-87
2023/05/08 09:38:34;;;;;;;7.45;2.75;;;10.80;60.60;;;;;;4784586;30;20146;-86
2023/05/08 09:41:15;;;;;;;6.00;2.77;;;10.70;60.70;;;;;;4784519;30;20414;-87
2023/05/08 09:43:44;;;;;;;5.38;2.50;;;10.90;61.70;;;;;;4784605;30;20489;-87
2023/05/08 09:46:25;;;;;;;5.07;2.30;;;11.00;59.30;;;;;;4784605;30;20087;-87
2023/05/08 09:48:54;;;;;;;5.45;2.30;;;11.00;59.50;;;;;;4784625;30;20058;-87
2023/05/08 09:51:23;;;;;;;6.35;2.28;;;11.00;60.70;;;;;;4784571;30;20052;-86
2023/05/08 09:53:54;;;;;;;6.57;2.83;;;11.00;57.70;;;;;;4785201;30;20051;-87
2023/05/08 09:56:48;;;;;;;8.82;2.85;;;11.20;60.20;;;;;;4784345;30;20075;-87
2023/05/08 09:59:26;;;;;;;6.20;2.70;;;11.50;57.90;;;;;;4782013;30;20109;-87
2023/05/08 10:01:54;;;;;;;6.32;2.78;;;11.50;57.80;;;;;;4784250;30;20051;-86
2023/05/08 10:04:35;;;;;;;7.32;2.53;;;11.50;57.10;;;;;;4784309;30;20150;-87
2023/05/08 10:07:03;;;;;;;6.63;2.10;;;11.40;57.80;;;;;;4784176;30;20442;-86
2023/05/08 10:09:30;;;;;;;8.07;2.67;;;11.40;58.80;;;;;;4784196;30;20079;-86
2023/05/08 10:12:13;;;;;;;7.57;2.83;;;11.50;56.50;;;;;;4784308;30;20052;-87
2023/05/08 10:14:40;;;;;;;7.35;2.72;;;11.50;58.20;;;;;;4784106;30;20063;-87
2023/05/08 10:17:09;;;;;;;6.72;2.75;;;11.70;56.00;;;;;;4784006;30;20062;-86
2023/05/08 10:19:43;;;;;;;6.27;2.23;;;11.80;57.90;;;;;;4783907;30;20054;-86
2023/05/08 10:22:14;;;;;;;5.53;2.50;;;12.00;57.50;;;;;;4784088;30;20051;-86
2023/05/08 10:24:45;;;;;;;7.20;2.40;;;11.80;55.30;;;;;;4784078;30;20055;-87
2023/05/08 10:27:37;;;;;;;6.45;2.60;;;11.90;58.40;;;;;;4783967;30;20447;-86
2023/05/08 10:30:07;;;;;;;6.72;2.70;;;12.00;55.20;;;;;;4783831;30;20051;-87
2023/05/08 10:32:41;;;;;;;10.83;3.00;;;11.90;54.10;;;;;;4783905;30;20388;-86
2023/05/08 10:35:10;;;;;;;6.82;2.63;;;12.00;55.60;;;;;;4783897;30;20142;-86
2023/05/08 10:37:41;;;;;;;6.35;2.65;;;12.00;55.60;;;;;;4784110;30;20407;-86
2023/05/08 10:40:09;;;;;;;5.90;2.50;;;11.90;54.20;;;;;;4783949;30;20167;-86
2023/05/08 10:42:38;;;;;;;7.82;2.97;;;11.80;55.70;;;;;;4783816;30;20477;-86
2023/05/08 10:45:07;;;;;;;6.30;2.20;;;11.70;56.90;;;;;;4783969;30;20468;-86
2023/05/08 10:47:36;;;;;;;5.50;2.40;;;12.00;55.30;;;;;;4769998;30;20047;-87
2023/05/08 10:50:32;;;;;;;7.20;2.70;;;11.90;54.40;;;;;;4784101;30;20105;-86
2023/05/08 10:53:03;;;;;;;6.05;2.10;;;12.00;56.40;;;;;;4783764;30;20059;-87
2023/05/08 10:55:32;;;;;;;5.10;2.40;;;12.10;55.70;;;;;;4783750;30;20055;-87
2023/05/08 10:58:11;;;;;;;5.03;2.17;;;12.30;55.40;;;;;;4783794;30;20055;-86
2023/05/08 11:01:00;;;;;;;5.80;2.17;;;12.10;54.00;;;;;;4783539;30;20055;-86
2023/05/08 11:03:29;;;;;;;5.88;2.63;;;12.00;53.90;;;;;;4783505;29;20109;-86
2023/05/08 11:06:00;;;;;;;6.57;2.60;;;11.90;53.90;;;;;;4772031;30;20150;-86
2023/05/08 11:08:29;;;;;;;7.90;2.55;;;12.00;53.80;;;;;;4772636;30;20051;-86
2023/05/08 11:10:59;;;;;;;6.07;2.40;;;12.00;53.50;;;;;;4772128;30;20142;-87
2023/05/08 11:13:44;;;;;;;5.70;2.20;;;12.00;55.20;;;;;;4772040;30;20424;-86
2023/05/08 11:16:11;;;;;;;5.38;2.38;;;12.30;55.40;;;;;;4771584;30;20083;-86
2023/05/08 11:19:15;;;;;;;7.68;3.10;;;12.50;55.40;;;;;;4771447;30;20062;-87
2023/05/08 11:22:13;;;;;;;5.20;1.90;;;12.80;53.60;;;;;;4771315;30;20541;-87
2023/05/08 11:24:47;;;;;;;6.67;2.40;;;13.10;52.30;;;;;;4771405;30;20047;-87
2023/05/08 11:27:15;;;;;;;5.63;2.35;;;13.20;51.80;;;;;;4771473;30;20058;-87
2023/05/08 11:29:43;;;;;;;5.85;2.22;;;13.30;53.50;;;;;;4771290;30;20046;-87
2023/05/08 11:32:10;;;;;;;8.32;2.22;;;13.30;51.90;;;;;;4771395;30;20507;-87
2023/05/08 11:34:41;;;;;;;6.07;2.75;;;13.30;50.70;;;;;;4771282;30;20044;-87
2023/05/08 11:37:21;;;;;;;6.23;2.60;;;13.10;50.70;;;;;;4771069;30;20047;-87
2023/05/08 11:39:48;;;;;;;4.95;2.35;;;13.20;52.30;;;;;;4757740;30;20457;-87
2023/05/08 11:42:33;;;;;;;6.60;2.50;;;13.30;51.40;;;;;;4767950;30;20127;-87
2023/05/08 11:45:09;;;;;;;4.68;2.10;;;13.10;50.90;;;;;;4770994;30;20410;-86
2023/05/08 11:47:44;;;;;;;8.68;2.72;;;13.20;51.90;;;;;;4759214;30;20115;-87
2023/05/08 11:50:12;;;;;;;5.60;2.33;;;13.20;52.50;;;;;;4770838;30;20579;-86
2023/05/08 11:52:41;;;;;;;4.97;2.00;;;13.40;54.30;;;;;;4770945;30;20138;-87
2023/05/08 11:55:10;;;;;;;5.32;2.25;;;13.50;51.00;;;;;;4770877;30;20052;-86
2023/05/08 11:57:37;;;;;;;4.97;2.30;;;13.10;50.40;;;;;;4770746;30;20108;-86
2023/05/08 12:00:06;;;;;;;6.03;2.33;;;12.90;50.30;;;;;;4770717;30;20077;-87
2023/05/08 12:02:39;;;;;;;4.73;1.90;;;12.80;53.40;;;;;;4771294;30;20048;-87
2023/05/08 12:05:07;;;;;;;5.57;2.63;;;13.20;52.80;;;;;;4781355;29;20044;-87
2023/05/08 12:07:47;;;;;;;5.47;2.70;;;13.40;52.20;;;;;;4785600;29;20392;-87
2023/05/08 12:10:14;;;;;;;5.00;1.98;;;13.50;51.00;;;;;;4785720;30;20117;-87
2023/05/08 12:12:44;;;;;;;6.85;2.20;;;13.50;50.30;;;;;;4785759;30;20052;-87
2023/05/08 12:15:12;;;;;;;6.13;2.57;;;13.40;50.50;;;;;;4785083;29;20473;-87
2023/05/08 12:17:40;;;;;;;5.55;2.30;;;13.40;50.50;;;;;;4784879;29;20138;-87
2023/05/08 12:20:12;;;;;;;8.10;2.70;;;13.50;51.50;;;;;;4770441;30;20054;-86
2023/05/08 12:22:41;;;;;;;5.38;2.15;;;13.20;50.50;;;;;;4785511;29;20176;-86
2023/05/08 12:25:13;;;;;;;7.80;2.85;;;13.30;51.60;;;;;;4785408;30;20047;-87
2023/05/08 12:27:40;;;;;;;5.17;2.30;;;13.60;54.20;;;;;;4785224;29;20132;-86
2023/05/08 12:30:09;;;;;;;7.13;1.88;;;14.00;53.10;;;;;;4785279;30;20056;-87
2023/05/08 12:32:39;;;;;;;6.07;2.08;;;14.40;51.60;;;;;;4785171;30;20518;-87
2023/05/08 12:35:11;;;;;;;6.05;2.08;;;14.50;49.90;;;;;;4785190;29;20101;-87
2023/05/08 12:37:38;;;;;;;5.75;2.13;;;14.40;51.10;;;;;;4784934;30;20059;-87
2023/05/08 12:40:06;;;;;;;5.83;2.27;;;14.40;48.10;;;;;;4785034;29;20079;-87
2023/05/08 12:42:44;;;;;;;12.07;2.22;;;14.50;50.80;;;;;;4771108;29;20078;-87
2023/05/08 12:45:19;;;;;;;5.25;2.00;;;14.30;48.10;;;;;;4781785;30;20051;-87
2023/05/08 12:47:50;;;;;;;3.80;1.55;;;14.50;50.70;;;;;;4785048;30;20101;-87
2023/05/08 12:50:20;;;;;;;5.47;1.88;;;14.80;49.40;;;;;;4783725;29;20051;-86
2023/05/08 12:52:48;;;;;;;4.87;2.07;;;14.80;47.30;;;;;;4784755;30;20052;-86
2023/05/08 12:55:29;;;;;;;3.85;1.77;;;14.90;46.70;;;;;;4784404;30;20048;-87
2023/05/08 12:58:06;;;;;;;7.13;2.30;;;15.00;47.70;;;;;;4784389;30;20318;-87
2023/05/08 13:00:43;;;;;;;6.07;1.90;;;14.90;46.30;;;;;;4784747;30;20059;-87
2023/05/08 13:03:12;;;;;;;5.10;2.40;;;15.00;48.00;;;;;;4784286;30;20061;-87
2023/05/08 13:05:44;;;;;;;6.23;2.10;;;15.10;46.50;;;;;;4770088;30;20138;-87
2023/05/08 13:08:12;;;;;;;5.00;2.10;;;14.90;45.30;;;;;;4769493;30;20043;-86
2023/05/08 13:10:57;;;;;;;5.35;2.00;;;14.80;46.30;;;;;;4769778;30;20058;-87
2023/05/08 13:13:28;;;;;;;4.85;1.80;;;14.70;47.20;;;;;;4770363;30;20062;-87
2023/05/08 13:15:56;;;;;;;4.53;1.95;;;14.60;46.00;;;;;;4769705;30;20048;-87